Terminal Aerodrome Forecast
Issued by NWS

Home | Current Version | Previous Version | Text Only | Print | Product List | Glossary On
Versions: 1 2 3 4 5 6 7 8 9 10 11 12 13
000
FTUS41 KLWX 262341 AAB
TAFMTN
TAF AMD
KMTN 262341Z 2700/2724 21003KT P6SM VCSH SCT040 BKN070
     FM270600 19005KT P6SM OVC025
     FM270800 19004KT P6SM OVC015
     FM270900 19004KT P6SM OVC008
     FM271700 16004KT P6SM OVC020
     FM271800 14004KT P6SM -SHRA VCTS OVC025CB
     FM272200 11007KT P6SM -SHRA VCTS BKN008 OVC015CB
      AMD NOT SKED 2702/2712=

USA.gov is the U.S. government's official web portal to all federal, state and local government web resources and services.